sensor_id;sensor_type;location;lat;lon;timestamp;pressure;altitude;pressure_sealevel;temperature;humidity
20013;BME280;10167;42.852;23.042;2023-04-03T00:00:44;94256.81;;;7.16;100.00
20013;BME280;10167;42.852;23.042;2023-04-03T00:03:13;94265.16;;;7.13;100.00
20013;BME280;10167;42.852;23.042;2023-04-03T00:05:43;94252.47;;;7.10;100.00
20013;BME280;10167;42.852;23.042;2023-04-03T00:08:12;94255.66;;;7.12;100.00
20013;BME280;10167;42.852;23.042;2023-04-03T00:10:41;94259.09;;;7.12;100.00
20013;BME280;10167;42.852;23.042;2023-04-03T00:13:11;94258.63;;;7.04;100.00
20013;BME280;10167;42.852;23.042;2023-04-03T00:15:41;94256.81;;;6.92;100.00
20013;BME280;10167;42.852;23.042;2023-04-03T00:18:11;94255.44;;;6.90;100.00
20013;BME280;10167;42.852;23.042;2023-04-03T00:20:41;94251.56;;;6.81;100.00
20013;BME280;10167;42.852;23.042;2023-04-03T00:23:10;94254.41;;;6.79;100.00
20013;BME280;10167;42.852;23.042;2023-04-03T00:25:39;94258.78;;;6.74;100.00
20013;BME280;10167;42.852;23.042;2023-04-03T00:28:09;94264.03;;;6.74;100.00
20013;BME280;10167;42.852;23.042;2023-04-03T00:30:38;94256.47;;;6.77;100.00
20013;BME280;10167;42.852;23.042;2023-04-03T00:33:11;94263.69;;;6.82;100.00
20013;BME280;10167;42.852;23.042;2023-04-03T00:35:41;94260.25;;;6.81;100.00
20013;BME280;10167;42.852;23.042;2023-04-03T00:38:12;94268.84;;;6.77;100.00
20013;BME280;10167;42.852;23.042;2023-04-03T00:40:43;94264.59;;;6.76;100.00
20013;BME280;10167;42.852;23.042;2023-04-03T00:43:15;94269.16;;;6.69;100.00
20013;BME280;10167;42.852;23.042;2023-04-03T00:45:46;94266.22;;;6.65;100.00
20013;BME280;10167;42.852;23.042;2023-04-03T00:48:20;94279.09;;;6.55;100.00
20013;BME280;10167;42.852;23.042;2023-04-03T00:50:50;94273.94;;;6.48;100.00
20013;BME280;10167;42.852;23.042;2023-04-03T00:53:23;94277.81;;;6.46;100.00
20013;BME280;10167;42.852;23.042;2023-04-03T00:55:55;94284.34;;;6.32;100.00
20013;BME280;10167;42.852;23.042;2023-04-03T00:58:30;94277.22;;;6.32;100.00
20013;BME280;10167;42.852;23.042;2023-04-03T01:01:07;94285.78;;;6.28;100.00
20013;BME280;10167;42.852;23.042;2023-04-03T01:03:38;94279.84;;;6.32;100.00
20013;BME280;10167;42.852;23.042;2023-04-03T01:06:08;94275.38;;;6.33;100.00
20013;BME280;10167;42.852;23.042;2023-04-03T01:08:38;94280.78;;;6.38;100.00
20013;BME280;10167;42.852;23.042;2023-04-03T01:11:07;94270.03;;;6.39;100.00
20013;BME280;10167;42.852;23.042;2023-04-03T01:13:36;94275.97;;;6.35;100.00
20013;BME280;10167;42.852;23.042;2023-04-03T01:16:07;94265.44;;;6.35;100.00
20013;BME280;10167;42.852;23.042;2023-04-03T01:18:39;94263.28;;;6.43;100.00
20013;BME280;10167;42.852;23.042;2023-04-03T01:21:47;94269.38;;;6.55;100.00
20013;BME280;10167;42.852;23.042;2023-04-03T01:24:34;94273.97;;;6.60;100.00
20013;BME280;10167;42.852;23.042;2023-04-03T01:27:09;94263.88;;;6.57;100.00
20013;BME280;10167;42.852;23.042;2023-04-03T01:29:40;94265.16;;;6.54;100.00
20013;BME280;10167;42.852;23.042;2023-04-03T01:32:12;94272.91;;;6.49;100.00
20013;BME280;10167;42.852;23.042;2023-04-03T01:34:42;94270.97;;;6.45;100.00
20013;BME280;10167;42.852;23.042;2023-04-03T01:37:11;94261.44;;;6.32;100.00
20013;BME280;10167;42.852;23.042;2023-04-03T01:39:40;94263.28;;;6.32;100.00
20013;BME280;10167;42.852;23.042;2023-04-03T01:42:09;94262.72;;;6.30;100.00
20013;BME280;10167;42.852;23.042;2023-04-03T01:44:42;94263.03;;;6.33;100.00
20013;BME280;10167;42.852;23.042;2023-04-03T01:47:13;94261.56;;;6.26;100.00
20013;BME280;10167;42.852;23.042;2023-04-03T01:49:43;94267.69;;;6.08;100.00
20013;BME280;10167;42.852;23.042;2023-04-03T01:52:13;94260.78;;;5.95;100.00
20013;BME280;10167;42.852;23.042;2023-04-03T01:54:42;94268.19;;;5.98;100.00
20013;BME280;10167;42.852;23.042;2023-04-03T01:57:11;94261.47;;;6.02;100.00
20013;BME280;10167;42.852;23.042;2023-04-03T01:59:42;94257.84;;;6.03;100.00
20013;BME280;10167;42.852;23.042;2023-04-03T02:02:12;94261.63;;;6.07;100.00
20013;BME280;10167;42.852;23.042;2023-04-03T02:04:42;94260.94;;;6.12;100.00
20013;BME280;10167;42.852;23.042;2023-04-03T02:07:11;94259.91;;;6.13;100.00
20013;BME280;10167;42.852;23.042;2023-04-03T02:09:40;94264.69;;;6.04;100.00
20013;BME280;10167;42.852;23.042;2023-04-03T02:12:09;94255.06;;;5.98;100.00
20013;BME280;10167;42.852;23.042;2023-04-03T02:14:39;94251.06;;;5.96;100.00
20013;BME280;10167;42.852;23.042;2023-04-03T02:17:12;94258.38;;;5.94;100.00
20013;BME280;10167;42.852;23.042;2023-04-03T02:19:42;94259.75;;;5.96;100.00
20013;BME280;10167;42.852;23.042;2023-04-03T02:22:12;94266.03;;;5.95;100.00
20013;BME280;10167;42.852;23.042;2023-04-03T02:24:41;94257.00;;;5.91;100.00
20013;BME280;10167;42.852;23.042;2023-04-03T02:27:10;94246.63;;;5.78;100.00
20013;BME280;10167;42.852;23.042;2023-04-03T02:29:39;94242.59;;;5.64;100.00
20013;BME280;10167;42.852;23.042;2023-04-03T02:32:08;94239.00;;;5.58;100.00
20013;BME280;10167;42.852;23.042;2023-04-03T02:34:39;94237.50;;;5.51;100.00
20013;BME280;10167;42.852;23.042;2023-04-03T02:37:10;94234.72;;;5.45;100.00
20013;BME280;10167;42.852;23.042;2023-04-03T02:39:41;94230.09;;;5.29;100.00
20013;BME280;10167;42.852;23.042;2023-04-03T02:42:10;94234.16;;;5.25;100.00
20013;BME280;10167;42.852;23.042;2023-04-03T02:44:39;94233.44;;;5.18;100.00
20013;BME280;10167;42.852;23.042;2023-04-03T02:47:10;94232.28;;;5.14;100.00
20013;BME280;10167;42.852;23.042;2023-04-03T02:49:40;94228.34;;;5.05;100.00
20013;BME280;10167;42.852;23.042;2023-04-03T02:52:17;94227.16;;;5.01;100.00
20013;BME280;10167;42.852;23.042;2023-04-03T02:54:47;94226.94;;;5.02;100.00
20013;BME280;10167;42.852;23.042;2023-04-03T02:57:17;94217.53;;;5.13;100.00
20013;BME280;10167;42.852;23.042;2023-04-03T02:59:47;94223.50;;;5.20;100.00
20013;BME280;10167;42.852;23.042;2023-04-03T03:02:16;94219.75;;;5.16;100.00
20013;BME280;10167;42.852;23.042;2023-04-03T03:04:47;94216.09;;;5.17;100.00
20013;BME280;10167;42.852;23.042;2023-04-03T03:07:16;94214.34;;;5.11;100.00
20013;BME280;10167;42.852;23.042;2023-04-03T03:09:46;94216.53;;;5.14;100.00
20013;BME280;10167;42.852;23.042;2023-04-03T03:12:15;94224.56;;;5.19;100.00
20013;BME280;10167;42.852;23.042;2023-04-03T03:14:49;94222.16;;;5.18;100.00
20013;BME280;10167;42.852;23.042;2023-04-03T03:17:19;94223.81;;;5.12;100.00
20013;BME280;10167;42.852;23.042;2023-04-03T03:19:49;94215.34;;;5.10;100.00
20013;BME280;10167;42.852;23.042;2023-04-03T03:22:19;94220.75;;;5.15;100.00
20013;BME280;10167;42.852;23.042;2023-04-03T03:24:48;94208.44;;;5.16;100.00
20013;BME280;10167;42.852;23.042;2023-04-03T03:27:17;94214.50;;;5.16;100.00
20013;BME280;10167;42.852;23.042;2023-04-03T03:29:46;94211.72;;;5.11;100.00
20013;BME280;10167;42.852;23.042;2023-04-03T03:32:16;94210.56;;;5.07;100.00
20013;BME280;10167;42.852;23.042;2023-04-03T03:34:45;94204.28;;;5.08;100.00
20013;BME280;10167;42.852;23.042;2023-04-03T03:37:16;94213.31;;;5.12;100.00
20013;BME280;10167;42.852;23.042;2023-04-03T03:39:45;94210.09;;;5.10;100.00
20013;BME280;10167;42.852;23.042;2023-04-03T03:42:17;94210.09;;;5.10;100.00
20013;BME280;10167;42.852;23.042;2023-04-03T03:44:46;94211.78;;;5.04;100.00
20013;BME280;10167;42.852;23.042;2023-04-03T03:47:16;94216.03;;;5.05;100.00
20013;BME280;10167;42.852;23.042;2023-04-03T03:49:46;94220.97;;;5.14;100.00
20013;BME280;10167;42.852;23.042;2023-04-03T03:52:17;94220.53;;;5.17;100.00
20013;BME280;10167;42.852;23.042;2023-04-03T03:54:47;94223.75;;;5.19;100.00
20013;BME280;10167;42.852;23.042;2023-04-03T03:57:16;94219.75;;;5.16;100.00
20013;BME280;10167;42.852;23.042;2023-04-03T03:59:45;94221.78;;;5.14;100.00
20013;BME280;10167;42.852;23.042;2023-04-03T04:02:18;94217.34;;;5.15;100.00
20013;BME280;10167;42.852;23.042;2023-04-03T04:04:48;94219.88;;;5.21;100.00
20013;BME280;10167;42.852;23.042;2023-04-03T04:07:19;94221.63;;;5.27;100.00
20013;BME280;10167;42.852;23.042;2023-04-03T04:09:48;94219.66;;;5.23;100.00
20013;BME280;10167;42.852;23.042;2023-04-03T04:12:18;94223.28;;;5.22;100.00
20013;BME280;10167;42.852;23.042;2023-04-03T04:14:47;94222.94;;;5.36;100.00
20013;BME280;10167;42.852;23.042;2023-04-03T04:17:17;94229.69;;;5.44;100.00
20013;BME280;10167;42.852;23.042;2023-04-03T04:19:46;94217.59;;;5.43;100.00
20013;BME280;10167;42.852;23.042;2023-04-03T04:22:16;94225.03;;;5.46;100.00
20013;BME280;10167;42.852;23.042;2023-04-03T04:24:47;94227.81;;;5.51;100.00
20013;BME280;10167;42.852;23.042;2023-04-03T04:27:17;94232.25;;;5.51;100.00
20013;BME280;10167;42.852;23.042;2023-04-03T04:29:46;94232.91;;;5.46;100.00
20013;BME280;10167;42.852;23.042;2023-04-03T04:32:16;94249.16;;;5.55;100.00
20013;BME280;10167;42.852;23.042;2023-04-03T04:34:45;94260.94;;;5.16;100.00
20013;BME280;10167;42.852;23.042;2023-04-03T04:37:15;94254.66;;;5.35;100.00
20013;BME280;10167;42.852;23.042;2023-04-03T04:39:48;94261.13;;;5.51;100.00
20013;BME280;10167;42.852;23.042;2023-04-03T04:42:18;94260.66;;;5.54;100.00
20013;BME280;10167;42.852;23.042;2023-04-03T04:44:48;94266.78;;;5.66;100.00
20013;BME280;10167;42.852;23.042;2023-04-03T04:47:18;94265.34;;;5.70;100.00
20013;BME280;10167;42.852;23.042;2023-04-03T04:49:47;94264.31;;;5.71;100.00
20013;BME280;10167;42.852;23.042;2023-04-03T04:52:17;94264.13;;;5.84;100.00
20013;BME280;10167;42.852;23.042;2023-04-03T04:54:47;94274.56;;;5.91;100.00
20013;BME280;10167;42.852;23.042;2023-04-03T04:57:17;94273.69;;;5.97;100.00
20013;BME280;10167;42.852;23.042;2023-04-03T04:59:47;94280.09;;;6.01;100.00
20013;BME280;10167;42.852;23.042;2023-04-03T05:02:16;94285.34;;;6.01;100.00
20013;BME280;10167;42.852;23.042;2023-04-03T05:04:45;94287.53;;;6.04;100.00
20013;BME280;10167;42.852;23.042;2023-04-03T05:07:19;94299.94;;;6.15;100.00
20013;BME280;10167;42.852;23.042;2023-04-03T05:09:50;94299.94;;;6.15;100.00
20013;BME280;10167;42.852;23.042;2023-04-03T05:12:20;94300.63;;;6.22;100.00
20013;BME280;10167;42.852;23.042;2023-04-03T05:14:55;94305.13;;;6.33;100.00
20013;BME280;10167;42.852;23.042;2023-04-03T05:17:27;94299.63;;;6.35;100.00
20013;BME280;10167;42.852;23.042;2023-04-03T05:19:58;94304.13;;;6.46;100.00
20013;BME280;10167;42.852;23.042;2023-04-03T05:22:29;94304.63;;;6.54;100.00
20013;BME280;10167;42.852;23.042;2023-04-03T05:25:07;94305.88;;;6.64;100.00
20013;BME280;10167;42.852;23.042;2023-04-03T05:27:38;94312.19;;;6.74;100.00
20013;BME280;10167;42.852;23.042;2023-04-03T05:30:08;94309.22;;;6.82;100.00
20013;BME280;10167;42.852;23.042;2023-04-03T05:32:40;94310.59;;;6.97;100.00
20013;BME280;10167;42.852;23.042;2023-04-03T05:35:18;94313.69;;;6.93;100.00
20013;BME280;10167;42.852;23.042;2023-04-03T05:37:50;94309.69;;;7.26;100.00
20013;BME280;10167;42.852;23.042;2023-04-03T05:40:21;94314.34;;;7.59;100.00
20013;BME280;10167;42.852;23.042;2023-04-03T05:42:53;94306.53;;;7.76;100.00
20013;BME280;10167;42.852;23.042;2023-04-03T05:45:24;94309.34;;;7.86;100.00
20013;BME280;10167;42.852;23.042;2023-04-03T05:47:54;94311.06;;;8.20;100.00
20013;BME280;10167;42.852;23.042;2023-04-03T05:50:24;94307.13;;;8.80;100.00
20013;BME280;10167;42.852;23.042;2023-04-03T05:52:57;94320.81;;;9.48;100.00
20013;BME280;10167;42.852;23.042;2023-04-03T05:55:30;94323.00;;;9.95;100.00
20013;BME280;10167;42.852;23.042;2023-04-03T05:58:00;94318.19;;;10.63;100.00
20013;BME280;10167;42.852;23.042;2023-04-03T06:00:29;94322.59;;;10.79;100.00
20013;BME280;10167;42.852;23.042;2023-04-03T06:03:01;94314.09;;;10.77;100.00
20013;BME280;10167;42.852;23.042;2023-04-03T06:05:33;94301.91;;;10.76;100.00
20013;BME280;10167;42.852;23.042;2023-04-03T06:08:03;94301.25;;;10.64;100.00
20013;BME280;10167;42.852;23.042;2023-04-03T06:10:35;94298.91;;;10.40;100.00
20013;BME280;10167;42.852;23.042;2023-04-03T06:13:05;94300.31;;;10.21;100.00
20013;BME280;10167;42.852;23.042;2023-04-03T06:15:36;94288.25;;;10.08;100.00
20013;BME280;10167;42.852;23.042;2023-04-03T06:18:09;94288.19;;;10.03;100.00
20013;BME280;10167;42.852;23.042;2023-04-03T06:20:38;94284.00;;;10.07;100.00
20013;BME280;10167;42.852;23.042;2023-04-03T06:23:08;94283.16;;;10.02;100.00
20013;BME280;10167;42.852;23.042;2023-04-03T06:25:39;94274.41;;;10.01;100.00
20013;BME280;10167;42.852;23.042;2023-04-03T06:28:09;94274.66;;;10.00;100.00
20013;BME280;10167;42.852;23.042;2023-04-03T06:30:38;94277.78;;;9.97;100.00
20013;BME280;10167;42.852;23.042;2023-04-03T06:33:11;94281.81;;;9.77;100.00
20013;BME280;10167;42.852;23.042;2023-04-03T06:35:40;94280.75;;;9.78;100.00
20013;BME280;10167;42.852;23.042;2023-04-03T06:38:09;94274.13;;;9.76;100.00
20013;BME280;10167;42.852;23.042;2023-04-03T06:40:40;94279.97;;;9.78;100.00
20013;BME280;10167;42.852;23.042;2023-04-03T06:43:09;94279.53;;;9.86;100.00
20013;BME280;10167;42.852;23.042;2023-04-03T06:45:38;94287.94;;;9.83;100.00
20013;BME280;10167;42.852;23.042;2023-04-03T06:48:07;94284.13;;;9.96;100.00
20013;BME280;10167;42.852;23.042;2023-04-03T06:50:37;94284.13;;;9.96;100.00
20013;BME280;10167;42.852;23.042;2023-04-03T06:53:06;94281.56;;;10.01;100.00
20013;BME280;10167;42.852;23.042;2023-04-03T06:55:36;94269.94;;;10.02;100.00
20013;BME280;10167;42.852;23.042;2023-04-03T06:58:07;94273.13;;;10.04;100.00
20013;BME280;10167;42.852;23.042;2023-04-03T07:00:37;94274.28;;;10.13;100.00
20013;BME280;10167;42.852;23.042;2023-04-03T07:03:06;94256.38;;;10.20;100.00
20013;BME280;10167;42.852;23.042;2023-04-03T07:05:35;94265.22;;;10.31;100.00
20013;BME280;10167;42.852;23.042;2023-04-03T07:08:06;94253.84;;;10.30;100.00
20013;BME280;10167;42.852;23.042;2023-04-03T07:10:35;94259.38;;;10.55;100.00
20013;BME280;10167;42.852;23.042;2023-04-03T07:13:08;94261.84;;;10.67;100.00
20013;BME280;10167;42.852;23.042;2023-04-03T07:15:37;94265.44;;;10.83;100.00
20013;BME280;10167;42.852;23.042;2023-04-03T07:18:06;94258.06;;;10.90;100.00
20013;BME280;10167;42.852;23.042;2023-04-03T07:20:36;94247.28;;;11.02;100.00
20013;BME280;10167;42.852;23.042;2023-04-03T07:23:05;94255.34;;;11.17;100.00
20013;BME280;10167;42.852;23.042;2023-04-03T07:25:34;94248.25;;;11.33;100.00
20013;BME280;10167;42.852;23.042;2023-04-03T07:28:04;94240.34;;;11.38;100.00
20013;BME280;10167;42.852;23.042;2023-04-03T07:30:42;94252.34;;;11.50;100.00
20013;BME280;10167;42.852;23.042;2023-04-03T07:33:11;94248.94;;;11.60;100.00
20013;BME280;10167;42.852;23.042;2023-04-03T07:35:41;94249.28;;;11.74;100.00
20013;BME280;10167;42.852;23.042;2023-04-03T07:38:13;94258.91;;;11.90;100.00
20013;BME280;10167;42.852;23.042;2023-04-03T07:40:45;94245.44;;;12.07;100.00
20013;BME280;10167;42.852;23.042;2023-04-03T07:43:15;94251.59;;;12.43;100.00
20013;BME280;10167;42.852;23.042;2023-04-03T07:45:46;94251.91;;;12.77;100.00
20013;BME280;10167;42.852;23.042;2023-04-03T07:48:17;94250.31;;;13.06;100.00
20013;BME280;10167;42.852;23.042;2023-04-03T07:50:46;94252.44;;;13.24;100.00
20013;BME280;10167;42.852;23.042;2023-04-03T07:53:15;94252.66;;;13.48;100.00
20013;BME280;10167;42.852;23.042;2023-04-03T07:55:46;94251.25;;;13.71;100.00
20013;BME280;10167;42.852;23.042;2023-04-03T07:58:17;94236.00;;;13.92;100.00
20013;BME280;10167;42.852;23.042;2023-04-03T08:00:48;94235.41;;;14.10;100.00
20013;BME280;10167;42.852;23.042;2023-04-03T08:03:18;94232.09;;;14.23;96.18
20013;BME280;10167;42.852;23.042;2023-04-03T08:05:48;94223.56;;;14.31;88.80
20013;BME280;10167;42.852;23.042;2023-04-03T08:08:19;94224.19;;;14.57;87.04
20013;BME280;10167;42.852;23.042;2023-04-03T08:10:50;94216.44;;;14.66;86.35
20013;BME280;10167;42.852;23.042;2023-04-03T08:13:19;94218.06;;;14.90;85.25
20013;BME280;10167;42.852;23.042;2023-04-03T08:15:50;94208.44;;;14.95;79.08
20013;BME280;10167;42.852;23.042;2023-04-03T08:18:20;94207.72;;;15.18;79.99
20013;BME280;10167;42.852;23.042;2023-04-03T08:20:52;94215.78;;;14.79;80.76
20013;BME280;10167;42.852;23.042;2023-04-03T08:23:21;94220.44;;;14.97;80.86
20013;BME280;10167;42.852;23.042;2023-04-03T08:25:50;94214.84;;;14.94;81.40
20013;BME280;10167;42.852;23.042;2023-04-03T08:28:19;94205.53;;;14.91;84.86
20013;BME280;10167;42.852;23.042;2023-04-03T08:30:54;94210.94;;;14.86;84.68
20013;BME280;10167;42.852;23.042;2023-04-03T08:33:24;94216.41;;;15.00;85.20
20013;BME280;10167;42.852;23.042;2023-04-03T08:35:54;94213.91;;;14.79;87.75
20013;BME280;10167;42.852;23.042;2023-04-03T08:38:23;94202.63;;;15.21;84.00
20013;BME280;10167;42.852;23.042;2023-04-03T08:41:02;94212.28;;;15.41;80.76
20013;BME280;10167;42.852;23.042;2023-04-03T08:43:39;94208.84;;;15.65;79.35
20013;BME280;10167;42.852;23.042;2023-04-03T08:46:14;94213.50;;;15.78;78.28
20013;BME280;10167;42.852;23.042;2023-04-03T08:48:46;94209.31;;;15.43;74.50
20013;BME280;10167;42.852;23.042;2023-04-03T08:51:18;94199.13;;;15.74;74.27
20013;BME280;10167;42.852;23.042;2023-04-03T08:53:55;94202.56;;;15.50;70.70
20013;BME280;10167;42.852;23.042;2023-04-03T08:56:27;94199.56;;;15.81;72.79
20013;BME280;10167;42.852;23.042;2023-04-03T08:58:59;94205.03;;;15.71;66.80
20013;BME280;10167;42.852;23.042;2023-04-03T09:01:35;94203.59;;;16.02;64.39
20013;BME280;10167;42.852;23.042;2023-04-03T09:04:15;94204.06;;;15.85;65.76
20013;BME280;10167;42.852;23.042;2023-04-03T09:06:47;94194.19;;;15.86;66.67
20013;BME280;10167;42.852;23.042;2023-04-03T09:09:30;94186.59;;;15.74;65.74
20013;BME280;10167;42.852;23.042;2023-04-03T09:12:06;94193.63;;;15.36;68.23
20013;BME280;10167;42.852;23.042;2023-04-03T09:14:42;94190.59;;;14.95;69.22
20013;BME280;10167;42.852;23.042;2023-04-03T09:17:22;94188.28;;;14.49;69.49
20013;BME280;10167;42.852;23.042;2023-04-03T09:20:01;94182.78;;;14.41;73.30
20013;BME280;10167;42.852;23.042;2023-04-03T09:22:39;94185.28;;;14.17;76.18
20013;BME280;10167;42.852;23.042;2023-04-03T09:25:21;94187.09;;;14.27;78.36
20013;BME280;10167;42.852;23.042;2023-04-03T09:27:51;94186.75;;;14.43;74.43
20013;BME280;10167;42.852;23.042;2023-04-03T09:30:22;94177.06;;;14.13;78.37
20013;BME280;10167;42.852;23.042;2023-04-03T09:32:55;94169.50;;;13.87;77.03
20013;BME280;10167;42.852;23.042;2023-04-03T09:35:26;94168.84;;;14.10;78.18
20013;BME280;10167;42.852;23.042;2023-04-03T09:38:18;94169.50;;;13.87;79.89
20013;BME280;10167;42.852;23.042;2023-04-03T09:40:49;94177.19;;;13.93;78.69
20013;BME280;10167;42.852;23.042;2023-04-03T09:43:24;94175.25;;;14.04;76.79
20013;BME280;10167;42.852;23.042;2023-04-03T09:45:54;94162.53;;;13.96;76.12
20013;BME280;10167;42.852;23.042;2023-04-03T09:48:25;94165.09;;;14.11;76.36
20013;BME280;10167;42.852;23.042;2023-04-03T09:50:58;94167.31;;;13.94;77.76
20013;BME280;10167;42.852;23.042;2023-04-03T09:53:34;94154.16;;;14.17;78.70
20013;BME280;10167;42.852;23.042;2023-04-03T09:56:19;94151.13;;;14.29;78.29
20013;BME280;10167;42.852;23.042;2023-04-03T09:58:51;94144.53;;;14.22;76.90
20013;BME280;10167;42.852;23.042;2023-04-03T10:01:23;94140.44;;;14.39;77.17
20013;BME280;10167;42.852;23.042;2023-04-03T10:04:05;94133.16;;;14.50;76.55
20013;BME280;10167;42.852;23.042;2023-04-03T10:06:36;94124.03;;;14.56;76.18
20013;BME280;10167;42.852;23.042;2023-04-03T10:09:18;94122.88;;;14.67;74.78
20013;BME280;10167;42.852;23.042;2023-04-03T10:12:06;94120.25;;;14.62;74.43
20013;BME280;10167;42.852;23.042;2023-04-03T10:14:37;94113.59;;;14.65;73.22
20013;BME280;10167;42.852;23.042;2023-04-03T10:17:16;94112.03;;;14.59;74.63
20013;BME280;10167;42.852;23.042;2023-04-03T10:19:53;94126.16;;;14.88;71.53
20013;BME280;10167;42.852;23.042;2023-04-03T10:22:31;94121.94;;;14.82;71.72
20013;BME280;10167;42.852;23.042;2023-04-03T10:25:12;94108.56;;;14.87;74.76
20013;BME280;10167;42.852;23.042;2023-04-03T10:27:51;94111.44;;;14.67;75.90
20013;BME280;10167;42.852;23.042;2023-04-03T10:30:32;94107.59;;;14.78;77.75
20013;BME280;10167;42.852;23.042;2023-04-03T10:33:17;94110.16;;;14.88;77.11
20013;BME280;10167;42.852;23.042;2023-04-03T10:35:58;94099.66;;;14.73;78.62
20013;BME280;10167;42.852;23.042;2023-04-03T10:38:34;94094.94;;;14.65;79.06
20013;BME280;10167;42.852;23.042;2023-04-03T10:41:14;94090.41;;;14.65;79.29
20013;BME280;10167;42.852;23.042;2023-04-03T10:43:49;94090.59;;;14.98;79.68
20013;BME280;10167;42.852;23.042;2023-04-03T10:46:27;94083.59;;;15.02;75.89
20013;BME280;10167;42.852;23.042;2023-04-03T10:49:08;94087.81;;;14.84;73.33
20013;BME280;10167;42.852;23.042;2023-04-03T10:51:45;94082.72;;;15.11;74.90
20013;BME280;10167;42.852;23.042;2023-04-03T10:54:20;94078.34;;;15.20;77.43
20013;BME280;10167;42.852;23.042;2023-04-03T10:56:55;94068.19;;;15.22;76.21
20013;BME280;10167;42.852;23.042;2023-04-03T10:59:41;94069.59;;;15.15;75.17
20013;BME280;10167;42.852;23.042;2023-04-03T11:02:17;94064.44;;;15.23;78.20
20013;BME280;10167;42.852;23.042;2023-04-03T11:04:51;94069.56;;;15.20;73.43
20013;BME280;10167;42.852;23.042;2023-04-03T11:07:26;94071.38;;;15.01;74.41
20013;BME280;10167;42.852;23.042;2023-04-03T11:10:03;94072.44;;;14.76;75.85
20013;BME280;10167;42.852;23.042;2023-04-03T11:12:40;94065.25;;;14.76;73.34
20013;BME280;10167;42.852;23.042;2023-04-03T11:15:15;94073.69;;;14.83;69.00
20013;BME280;10167;42.852;23.042;2023-04-03T11:17:49;94056.72;;;14.74;73.98
20013;BME280;10167;42.852;23.042;2023-04-03T11:20:23;94067.66;;;14.73;81.26
20013;BME280;10167;42.852;23.042;2023-04-03T11:23:00;94062.81;;;14.51;81.33
20013;BME280;10167;42.852;23.042;2023-04-03T11:25:32;94068.19;;;14.46;83.08
20013;BME280;10167;42.852;23.042;2023-04-03T11:28:06;94064.16;;;14.14;87.40
20013;BME280;10167;42.852;23.042;2023-04-03T11:30:46;94056.16;;;14.20;89.36
20013;BME280;10167;42.852;23.042;2023-04-03T11:33:37;94053.69;;;13.94;90.78
20013;BME280;10167;42.852;23.042;2023-04-03T11:36:18;94049.75;;;13.87;93.55
20013;BME280;10167;42.852;23.042;2023-04-03T11:39:03;94046.25;;;13.91;95.45
20013;BME280;10167;42.852;23.042;2023-04-03T11:41:36;94045.69;;;13.94;93.01
20013;BME280;10167;42.852;23.042;2023-04-03T11:44:28;94043.06;;;13.89;95.29
20013;BME280;10167;42.852;23.042;2023-04-03T11:46:59;94038.84;;;13.88;100.00
20013;BME280;10167;42.852;23.042;2023-04-03T11:53:29;94047.94;;;13.77;100.00
20013;BME280;10167;42.852;23.042;2023-04-03T11:56:48;94048.06;;;13.62;100.00
20013;BME280;10167;42.852;23.042;2023-04-03T11:59:41;94045.09;;;13.19;100.00
20013;BME280;10167;42.852;23.042;2023-04-03T12:05:55;94053.09;;;13.14;100.00
20013;BME280;10167;42.852;23.042;2023-04-03T12:08:56;94064.59;;;12.79;100.00
20013;BME280;10167;42.852;23.042;2023-04-03T12:11:53;94059.69;;;12.27;100.00
20013;BME280;10167;42.852;23.042;2023-04-03T12:28:47;94054.59;;;11.59;100.00
20013;BME280;10167;42.852;23.042;2023-04-03T12:31:46;94046.09;;;11.68;100.00
20013;BME280;10167;42.852;23.042;2023-04-03T12:35:00;94048.47;;;11.49;100.00
20013;BME280;10167;42.852;23.042;2023-04-03T12:41:21;94035.44;;;11.32;100.00
20013;BME280;10167;42.852;23.042;2023-04-03T12:44:48;94031.22;;;11.51;100.00
20013;BME280;10167;42.852;23.042;2023-04-03T12:50:33;94020.38;;;11.68;100.00
20013;BME280;10167;42.852;23.042;2023-04-03T12:53:27;94016.66;;;11.59;100.00
20013;BME280;10167;42.852;23.042;2023-04-03T12:56:28;94006.84;;;11.54;100.00
20013;BME280;10167;42.852;23.042;2023-04-03T12:59:28;94003.66;;;11.42;100.00
20013;BME280;10167;42.852;23.042;2023-04-03T13:02:25;94007.88;;;11.33;100.00
20013;BME280;10167;42.852;23.042;2023-04-03T13:05:13;94004.19;;;11.39;100.00
20013;BME280;10167;42.852;23.042;2023-04-03T13:08:10;93998.31;;;11.32;100.00
20013;BME280;10167;42.852;23.042;2023-04-03T13:10:58;94000.13;;;11.06;100.00
20013;BME280;10167;42.852;23.042;2023-04-03T13:14:15;94010.19;;;10.99;100.00
20013;BME280;10167;42.852;23.042;2023-04-03T13:17:16;94004.13;;;11.14;100.00
20013;BME280;10167;42.852;23.042;2023-04-03T13:20:08;94006.44;;;10.90;100.00
20013;BME280;10167;42.852;23.042;2023-04-03T13:22:53;94002.16;;;10.79;100.00
20013;BME280;10167;42.852;23.042;2023-04-03T13:25:35;94004.78;;;10.74;100.00
20013;BME280;10167;42.852;23.042;2023-04-03T13:28:20;93998.34;;;10.54;100.00
20013;BME280;10167;42.852;23.042;2023-04-03T13:31:05;94003.19;;;10.73;100.00
20013;BME280;10167;42.852;23.042;2023-04-03T13:33:36;93997.09;;;10.67;100.00
20013;BME280;10167;42.852;23.042;2023-04-03T13:36:08;93992.81;;;10.61;100.00
20013;BME280;10167;42.852;23.042;2023-04-03T13:38:43;93997.88;;;10.68;100.00
20013;BME280;10167;42.852;23.042;2023-04-03T13:41:25;94000.78;;;10.66;100.00
20013;BME280;10167;42.852;23.042;2023-04-03T13:43:55;94001.03;;;10.60;100.00
20013;BME280;10167;42.852;23.042;2023-04-03T13:46:40;94007.06;;;10.50;100.00
20013;BME280;10167;42.852;23.042;2023-04-03T13:49:21;94003.84;;;10.43;100.00
20013;BME280;10167;42.852;23.042;2023-04-03T13:51:50;94001.16;;;10.33;100.00